Time;durP1;ratioP1;P1;durP2;ratioP2;P2;SDS_P1;SDS_P2;PMS_P1;PMS_P2;Temp;Humidity;BMP_temperature;BMP_pressure;BME280_temperature;BME280_humidity;BME280_pressure;Samples;Min_cycle;Max_cycle;Signal;HPM_P1;HPM_P2
2022/12/23 00:02:19;;;;;;;308.05;49.97;;;;;;;;;;5078152;28;20067;-67
2022/12/23 00:04:45;;;;;;;310.17;50.85;;;;;;;;;;5098796;28;20072;-67
2022/12/23 00:07:11;;;;;;;343.77;51.15;;;;;;;;;;5099892;28;20063;-67
2022/12/23 00:09:37;;;;;;;247.75;50.85;;;;;;;;;;5096588;28;20047;-67
2022/12/23 00:17:33;;;;;;;;;;;;;;;;;;5081374;28;20043;-67
2022/12/23 00:20:00;;;;;;;272.92;49.58;;;;;;;;;;5074695;28;20294;-67
2022/12/23 00:25:12;;;;;;;208.27;45.15;;;;;;;;;;5095138;28;20132;-67
2022/12/23 00:27:38;;;;;;;235.55;47.30;;;;;;;;;;5095343;28;20069;-67
2022/12/23 00:30:05;;;;;;;314.02;50.58;;;;;;;;;;5077820;28;20568;-67
2022/12/23 00:32:31;;;;;;;291.40;53.78;;;;;;;;;;5096738;28;20198;-67
2022/12/23 00:34:57;;;;;;;273.23;52.40;;;;;;;;;;5074870;28;20112;-67
2022/12/23 00:37:24;;;;;;;264.77;50.95;;;;;;;;;;5097162;28;20504;-67
2022/12/23 00:45:19;;;;;;;232.65;49.80;;;;;;;;;;5096637;28;20483;-67
2022/12/23 00:50:31;;;;;;;223.75;49.85;;;;;;;;;;5095762;28;20044;-67
2022/12/23 00:52:58;;;;;;;300.90;52.42;;;;;;;;;;5076855;28;20055;-67
2022/12/23 00:55:24;;;;;;;248.23;51.58;;;;;;;;;;5094534;28;20357;-67
2022/12/23 00:57:50;;;;;;;355.60;52.35;;;;;;;;;;5077356;28;20051;-67
2022/12/23 01:00:17;;;;;;;287.67;50.38;;;;;;;;;;5063024;28;20047;-67
2022/12/23 01:05:37;;;;;;;319.88;50.42;;;;;;;;;;5078723;28;20041;-67
2022/12/23 01:08:04;;;;;;;327.67;50.42;;;;;;;;;;5079067;28;20040;-67
2022/12/23 01:10:30;;;;;;;306.60;50.88;;;;;;;;;;5099657;28;20092;-67
2022/12/23 01:12:56;;;;;;;309.98;53.63;;;;;;;;;;5081716;28;20043;-67
2022/12/23 01:15:22;;;;;;;352.10;55.53;;;;;;;;;;5102585;28;20123;-67
2022/12/23 01:17:48;;;;;;;347.73;56.92;;;;;;;;;;5101589;28;20112;-67
2022/12/23 01:20:15;;;;;;;300.33;53.72;;;;;;;;;;5100374;28;20116;-67
2022/12/23 01:22:41;;;;;;;426.70;59.65;;;;;;;;;;5101941;28;20129;-67
2022/12/23 01:25:07;;;;;;;306.23;55.78;;;;;;;;;;5100068;28;20047;-67
2022/12/23 01:27:33;;;;;;;361.45;58.30;;;;;;;;;;5083782;28;20047;-67
2022/12/23 01:29:59;;;;;;;260.02;52.20;;;;;;;;;;5102176;28;20095;-67
2022/12/23 01:32:25;;;;;;;385.23;56.80;;;;;;;;;;5082028;28;20060;-67
2022/12/23 01:34:52;;;;;;;320.85;53.78;;;;;;;;;;5101073;28;20031;-67
2022/12/23 01:37:18;;;;;;;368.25;56.33;;;;;;;;;;5099764;28;20043;-67
2022/12/23 01:39:44;;;;;;;405.60;57.88;;;;;;;;;;5100821;28;20088;-67
2022/12/23 01:45:03;;;;;;;432.38;57.13;;;;;;;;;;5099072;28;20146;-67
2022/12/23 01:47:37;;;;;;;419.17;57.55;;;;;;;;;;5100087;28;20142;-67
2022/12/23 01:50:23;;;;;;;369.63;54.20;;;;;;;;;;5099188;28;20059;-67
2022/12/23 01:52:49;;;;;;;;;;;;;;;;;;5098188;28;20073;-67
2022/12/23 01:55:18;;;;;;;323.17;52.80;;;;;;;;;;5080172;28;19966;-67
2022/12/23 01:57:46;;;;;;;220.50;48.70;;;;;;;;;;5100262;28;20412;-67
2022/12/23 02:03:43;;;;;;;229.50;47.33;;;;;;;;;;5081801;28;20043;-67
2022/12/23 02:09:15;;;;;;;269.88;49.78;;;;;;;;;;5080464;28;20036;-67
2022/12/23 02:11:46;;;;;;;236.73;48.65;;;;;;;;;;5100103;28;20065;-67
2022/12/23 02:17:15;;;;;;;202.65;46.65;;;;;;;;;;5101685;28;20052;-67
2022/12/23 02:19:53;;;;;;;252.93;46.45;;;;;;;;;;5096950;28;20441;-67
2022/12/23 02:22:31;;;;;;;209.85;44.83;;;;;;;;;;5098374;28;20040;-67
2022/12/23 02:25:05;;;;;;;232.90;45.35;;;;;;;;;;5095167;28;20036;-67
2022/12/23 02:27:37;;;;;;;204.88;46.75;;;;;;;;;;5093488;28;20403;-67
2022/12/23 02:30:21;;;;;;;246.52;45.72;;;;;;;;;;5097150;28;20593;-67
2022/12/23 02:33:11;;;;;;;180.13;42.10;;;;;;;;;;5099888;28;20039;-67
2022/12/23 02:35:49;;;;;;;173.75;43.22;;;;;;;;;;5096996;28;20075;-67
2022/12/23 02:38:19;;;;;;;289.98;44.25;;;;;;;;;;5100596;28;20097;-67
2022/12/23 02:40:45;;;;;;;294.00;45.03;;;;;;;;;;5098042;28;20067;-67
2022/12/23 02:43:20;;;;;;;191.13;39.65;;;;;;;;;;5075619;28;20087;-67
2022/12/23 02:45:56;;;;;;;218.43;40.88;;;;;;;;;;5077771;28;20050;-67
2022/12/23 02:48:23;;;;;;;238.02;43.88;;;;;;;;;;5075575;28;20150;-67
2022/12/23 02:50:51;;;;;;;218.15;42.63;;;;;;;;;;5083833;28;20032;-67
2022/12/23 02:53:21;;;;;;;248.32;43.45;;;;;;;;;;5077819;28;20059;-67
2022/12/23 02:55:48;;;;;;;169.60;39.67;;;;;;;;;;5094714;28;20063;-67
2022/12/23 02:58:16;;;;;;;252.90;40.30;;;;;;;;;;5076984;28;20457;-67
2022/12/23 03:00:43;;;;;;;220.55;42.65;;;;;;;;;;5075692;28;21488;-67
2022/12/23 03:03:09;;;;;;;169.23;38.55;;;;;;;;;;5073238;28;20052;-67
2022/12/23 03:05:39;;;;;;;205.32;41.45;;;;;;;;;;5076584;28;20475;-67
2022/12/23 03:08:07;;;;;;;208.48;42.10;;;;;;;;;;5078085;28;20048;-67
2022/12/23 03:10:39;;;;;;;201.45;40.50;;;;;;;;;;5076215;28;20044;-67
2022/12/23 03:13:08;;;;;;;225.68;39.88;;;;;;;;;;5075827;28;20147;-67
2022/12/23 03:15:43;;;;;;;179.65;36.83;;;;;;;;;;5078900;28;20086;-67
2022/12/23 03:18:15;;;;;;;181.90;36.17;;;;;;;;;;5080986;28;20399;-67
2022/12/23 03:20:43;;;;;;;233.25;39.22;;;;;;;;;;5078201;28;20045;-67
2022/12/23 03:23:09;;;;;;;192.63;36.17;;;;;;;;;;5078309;28;20046;-67
2022/12/23 03:25:40;;;;;;;214.45;37.08;;;;;;;;;;5077795;28;20143;-67
2022/12/23 03:28:10;;;;;;;307.58;39.65;;;;;;;;;;5074485;28;20086;-67
2022/12/23 03:30:39;;;;;;;163.30;34.63;;;;;;;;;;5087484;28;20106;-67
2022/12/23 03:33:13;;;;;;;202.60;35.25;;;;;;;;;;5074282;28;20063;-67
2022/12/23 03:35:42;;;;;;;163.20;32.35;;;;;;;;;;5086468;28;20054;-67
2022/12/23 03:38:10;;;;;;;231.85;33.50;;;;;;;;;;5077528;28;20714;-67
2022/12/23 03:40:38;;;;;;;203.10;33.58;;;;;;;;;;5074343;28;20048;-67
2022/12/23 03:43:06;;;;;;;163.63;33.65;;;;;;;;;;5074364;28;20060;-67
2022/12/23 03:45:37;;;;;;;167.95;31.10;;;;;;;;;;5059961;28;20141;-67
2022/12/23 03:48:05;;;;;;;133.65;30.00;;;;;;;;;;5077823;28;20103;-67
2022/12/23 03:50:32;;;;;;;159.75;29.55;;;;;;;;;;5077646;28;20055;-67
2022/12/23 03:53:01;;;;;;;165.52;30.05;;;;;;;;;;5074105;28;20100;-67
2022/12/23 03:55:31;;;;;;;127.07;28.98;;;;;;;;;;5077513;28;20052;-66
2022/12/23 03:58:02;;;;;;;121.47;27.90;;;;;;;;;;5075390;28;20116;-67
2022/12/23 04:00:30;;;;;;;147.48;29.75;;;;;;;;;;5075217;28;20063;-67
2022/12/23 04:02:58;;;;;;;165.77;29.98;;;;;;;;;;5077264;28;20087;-67
2022/12/23 04:05:26;;;;;;;200.73;30.58;;;;;;;;;;5082015;28;20039;-67
2022/12/23 04:08:01;;;;;;;179.75;29.88;;;;;;;;;;5078077;28;20563;-67
2022/12/23 04:10:27;;;;;;;152.70;28.17;;;;;;;;;;5068380;28;20083;-67
2022/12/23 04:12:54;;;;;;;116.43;25.65;;;;;;;;;;5077920;28;20063;-67
2022/12/23 04:15:21;;;;;;;123.97;24.60;;;;;;;;;;5076741;28;20039;-67
2022/12/23 04:17:48;;;;;;;123.13;25.92;;;;;;;;;;5080180;28;20040;-67
2022/12/23 04:20:14;;;;;;;135.38;27.02;;;;;;;;;;5075522;28;20047;-67
2022/12/23 04:22:42;;;;;;;107.10;24.15;;;;;;;;;;5085221;28;20086;-67
2022/12/23 04:25:09;;;;;;;132.90;24.75;;;;;;;;;;5076660;28;20067;-67
2022/12/23 04:27:35;;;;;;;97.68;25.27;;;;;;;;;;5078583;28;20047;-67
2022/12/23 04:30:01;;;;;;;102.82;22.38;;;;;;;;;;5076092;28;20148;-66
2022/12/23 04:32:27;;;;;;;118.55;23.67;;;;;;;;;;5076875;28;20048;-67
2022/12/23 04:34:53;;;;;;;106.35;22.20;;;;;;;;;;5076447;28;21525;-67
2022/12/23 04:37:19;;;;;;;77.55;20.88;;;;;;;;;;5077219;28;20148;-66
2022/12/23 04:39:45;;;;;;;73.10;21.55;;;;;;;;;;5077278;28;20068;-67
2022/12/23 04:42:12;;;;;;;97.65;21.92;;;;;;;;;;5072898;28;20529;-67
2022/12/23 04:44:38;;;;;;;94.25;22.85;;;;;;;;;;5076940;28;20052;-67
2022/12/23 04:47:04;;;;;;;99.20;21.83;;;;;;;;;;5075532;28;20044;-67
2022/12/23 04:49:31;;;;;;;134.13;23.20;;;;;;;;;;5074683;28;20064;-67
2022/12/23 04:51:57;;;;;;;174.55;23.98;;;;;;;;;;5058426;28;20049;-67
2022/12/23 04:54:23;;;;;;;477.95;35.60;;;;;;;;;;5075394;28;20067;-67
2022/12/23 04:56:49;;;;;;;313.58;29.05;;;;;;;;;;5076660;28;20046;-66
2022/12/23 04:59:15;;;;;;;381.38;30.98;;;;;;;;;;5075492;28;20193;-67
2022/12/23 05:01:42;;;;;;;269.35;26.35;;;;;;;;;;5057090;28;20104;-67
2022/12/23 05:04:08;;;;;;;272.10;26.42;;;;;;;;;;5057345;28;20060;-67
2022/12/23 05:06:35;;;;;;;365.27;29.52;;;;;;;;;;5075216;28;20077;-67
2022/12/23 05:09:01;;;;;;;409.73;31.63;;;;;;;;;;5058266;28;20041;-67
2022/12/23 05:11:27;;;;;;;291.13;26.45;;;;;;;;;;5056432;28;20403;-67
2022/12/23 05:13:53;;;;;;;247.18;26.58;;;;;;;;;;5078044;28;20064;-67
2022/12/23 05:16:19;;;;;;;218.60;26.60;;;;;;;;;;5075536;28;20584;-67
2022/12/23 05:18:46;;;;;;;228.30;25.40;;;;;;;;;;5074324;28;20522;-67
2022/12/23 05:21:12;;;;;;;217.25;25.63;;;;;;;;;;5076625;28;20519;-67
2022/12/23 05:23:38;;;;;;;263.35;24.95;;;;;;;;;;5075317;28;20043;-67
2022/12/23 05:26:04;;;;;;;236.20;26.30;;;;;;;;;;5074492;28;20072;-66
2022/12/23 05:28:30;;;;;;;212.73;24.25;;;;;;;;;;5076514;28;20055;-67
2022/12/23 05:30:57;;;;;;;220.93;24.02;;;;;;;;;;5073232;28;20047;-67
2022/12/23 05:33:23;;;;;;;246.95;24.70;;;;;;;;;;5074744;28;20044;-67
2022/12/23 05:35:50;;;;;;;366.92;28.17;;;;;;;;;;5075616;28;20032;-67
2022/12/23 05:38:16;;;;;;;273.60;25.83;;;;;;;;;;5074458;28;20127;-67
2022/12/23 05:40:42;;;;;;;296.45;24.13;;;;;;;;;;5074680;28;20036;-67
2022/12/23 05:43:08;;;;;;;305.45;24.35;;;;;;;;;;5093120;28;20099;-67
2022/12/23 05:45:35;;;;;;;304.50;25.75;;;;;;;;;;5076213;28;20040;-67
2022/12/23 05:48:01;;;;;;;184.65;23.50;;;;;;;;;;5076806;28;20071;-67
2022/12/23 05:50:27;;;;;;;266.13;25.33;;;;;;;;;;5077802;28;21820;-67
2022/12/23 05:52:54;;;;;;;290.23;27.42;;;;;;;;;;5076745;28;20054;-67
2022/12/23 05:55:21;;;;;;;274.25;26.83;;;;;;;;;;5097270;28;20149;-67
2022/12/23 05:57:47;;;;;;;326.08;28.67;;;;;;;;;;5096850;28;20050;-66
2022/12/23 06:00:14;;;;;;;380.00;30.52;;;;;;;;;;5099788;28;20067;-66
2022/12/23 06:02:40;;;;;;;406.52;31.90;;;;;;;;;;5083507;28;20062;-66
2022/12/23 06:05:06;;;;;;;369.00;30.42;;;;;;;;;;5080555;28;20040;-67
2022/12/23 06:07:32;;;;;;;352.60;31.10;;;;;;;;;;5063462;28;20583;-67
2022/12/23 06:09:59;;;;;;;363.05;31.05;;;;;;;;;;5098874;28;20059;-69
2022/12/23 06:12:25;;;;;;;340.42;31.33;;;;;;;;;;5100063;28;20055;-67
2022/12/23 06:14:51;;;;;;;357.38;32.55;;;;;;;;;;5099315;28;20047;-67
2022/12/23 06:17:17;;;;;;;401.27;32.38;;;;;;;;;;5100937;28;20089;-67
2022/12/23 06:19:43;;;;;;;368.70;30.33;;;;;;;;;;5101361;28;20044;-67
2022/12/23 06:22:10;;;;;;;375.33;30.05;;;;;;;;;;5102503;28;20563;-70
2022/12/23 06:24:36;;;;;;;409.48;31.25;;;;;;;;;;5085052;28;20052;-67
2022/12/23 06:27:03;;;;;;;437.92;31.13;;;;;;;;;;5077445;28;20119;-67
2022/12/23 06:29:29;;;;;;;344.30;28.23;;;;;;;;;;5099975;28;20084;-67
2022/12/23 06:31:55;;;;;;;287.75;26.45;;;;;;;;;;5101534;28;20134;-67
2022/12/23 06:34:21;;;;;;;321.30;27.13;;;;;;;;;;5102380;28;20040;-67
2022/12/23 06:36:47;;;;;;;244.38;24.13;;;;;;;;;;5101313;28;20475;-67
2022/12/23 06:39:14;;;;;;;204.38;21.48;;;;;;;;;;5079771;28;20055;-67
2022/12/23 06:41:40;;;;;;;172.23;21.63;;;;;;;;;;5102768;28;20712;-66
2022/12/23 06:44:06;;;;;;;112.82;19.88;;;;;;;;;;5099630;28;20055;-66
2022/12/23 06:46:33;;;;;;;88.65;18.60;;;;;;;;;;5103090;28;20036;-66
2022/12/23 06:48:59;;;;;;;78.32;18.77;;;;;;;;;;5081039;28;20039;-67
2022/12/23 06:51:25;;;;;;;65.90;17.67;;;;;;;;;;5084643;28;20059;-67
2022/12/23 06:53:51;;;;;;;63.03;17.20;;;;;;;;;;5081849;28;20070;-65
2022/12/23 06:56:17;;;;;;;76.60;18.20;;;;;;;;;;5087495;28;20039;-65
2022/12/23 06:58:43;;;;;;;53.42;16.48;;;;;;;;;;5080319;28;20076;-66
2022/12/23 07:01:10;;;;;;;51.53;15.20;;;;;;;;;;5107021;28;20036;-65
2022/12/23 07:03:36;;;;;;;59.70;15.77;;;;;;;;;;5088083;28;20395;-65
2022/12/23 07:06:02;;;;;;;49.33;16.13;;;;;;;;;;5108137;28;20036;-65
2022/12/23 07:08:29;;;;;;;55.53;17.55;;;;;;;;;;5089975;28;20055;-65
2022/12/23 07:10:59;;;;;;;49.33;15.65;;;;;;;;;;5105934;28;20089;-65
2022/12/23 07:13:25;;;;;;;54.22;14.57;;;;;;;;;;5088477;28;20032;-65
2022/12/23 07:15:51;;;;;;;55.53;16.13;;;;;;;;;;5106283;28;20051;-65
2022/12/23 07:18:17;;;;;;;51.35;16.83;;;;;;;;;;5108403;28;20099;-65
2022/12/23 07:20:43;;;;;;;57.92;17.23;;;;;;;;;;5111067;28;20067;-66
2022/12/23 07:23:10;;;;;;;46.15;15.00;;;;;;;;;;5085347;28;20043;-66
2022/12/23 07:25:36;;;;;;;50.25;16.10;;;;;;;;;;5106263;28;20080;-66
2022/12/23 07:28:02;;;;;;;49.28;16.30;;;;;;;;;;5105179;28;20051;-65
2022/12/23 07:30:28;;;;;;;45.33;14.95;;;;;;;;;;5100298;28;20032;-65
2022/12/23 07:32:54;;;;;;;44.45;16.02;;;;;;;;;;5097545;28;20055;-65
2022/12/23 07:35:20;;;;;;;42.72;15.18;;;;;;;;;;5101567;28;20033;-65
2022/12/23 07:37:51;;;;;;;45.97;15.90;;;;;;;;;;5080872;28;20044;-65
2022/12/23 07:40:18;;;;;;;52.47;15.38;;;;;;;;;;5082997;28;20100;-65
2022/12/23 07:42:44;;;;;;;45.85;14.90;;;;;;;;;;5084335;28;20139;-64
2022/12/23 07:45:10;;;;;;;50.38;16.65;;;;;;;;;;5103906;28;20229;-65
2022/12/23 07:47:36;;;;;;;45.22;15.50;;;;;;;;;;5085279;28;20043;-65
2022/12/23 07:50:03;;;;;;;53.53;15.63;;;;;;;;;;5086557;28;20100;-65
2022/12/23 07:52:29;;;;;;;57.30;16.13;;;;;;;;;;5103252;28;20063;-65
2022/12/23 07:54:55;;;;;;;71.38;18.45;;;;;;;;;;5083349;28;20040;-65
2022/12/23 07:57:23;;;;;;;65.35;16.83;;;;;;;;;;5085725;28;20047;-65
2022/12/23 07:59:49;;;;;;;66.55;16.70;;;;;;;;;;5103812;28;20040;-64
2022/12/23 08:02:15;;;;;;;72.00;17.42;;;;;;;;;;5103052;28;20058;-63
2022/12/23 08:04:41;;;;;;;71.70;17.00;;;;;;;;;;5103537;28;20123;-63
2022/12/23 08:07:07;;;;;;;48.53;14.85;;;;;;;;;;5103167;28;20044;-63
2022/12/23 08:09:34;;;;;;;59.70;16.48;;;;;;;;;;5106381;28;20050;-65
2022/12/23 08:12:00;;;;;;;57.80;16.02;;;;;;;;;;5101032;28;20501;-65
2022/12/23 08:14:26;;;;;;;59.17;16.42;;;;;;;;;;5084633;28;20043;-65
2022/12/23 08:16:52;;;;;;;67.70;16.45;;;;;;;;;;5081617;28;20044;-65
2022/12/23 08:19:18;;;;;;;60.63;16.67;;;;;;;;;;5085104;28;20051;-65
2022/12/23 08:21:44;;;;;;;69.40;17.75;;;;;;;;;;5100428;28;20048;-65
2022/12/23 08:24:10;;;;;;;69.35;18.17;;;;;;;;;;5104811;28;20051;-65
2022/12/23 08:26:37;;;;;;;59.33;17.38;;;;;;;;;;5105478;28;20067;-65
2022/12/23 08:29:03;;;;;;;65.43;17.95;;;;;;;;;;5085893;28;20047;-65
2022/12/23 08:31:30;;;;;;;76.55;18.00;;;;;;;;;;5090709;28;20433;-66
2022/12/23 08:33:58;;;;;;;72.07;18.25;;;;;;;;;;5107531;28;20043;-67
2022/12/23 08:36:26;;;;;;;67.30;18.88;;;;;;;;;;5108544;28;20130;-66
2022/12/23 08:38:53;;;;;;;57.38;18.08;;;;;;;;;;5104921;28;20445;-66
2022/12/23 08:41:24;;;;;;;58.38;17.95;;;;;;;;;;5107087;28;20075;-65
2022/12/23 08:43:51;;;;;;;61.65;16.83;;;;;;;;;;5108441;28;20433;-67
2022/12/23 08:46:18;;;;;;;52.95;17.40;;;;;;;;;;5107860;28;20394;-67
2022/12/23 08:48:44;;;;;;;53.58;16.95;;;;;;;;;;5108175;28;20035;-66
2022/12/23 08:51:12;;;;;;;65.43;17.63;;;;;;;;;;5109033;28;20045;-66
2022/12/23 08:53:38;;;;;;;60.40;18.65;;;;;;;;;;5108206;28;20039;-66
2022/12/23 08:56:06;;;;;;;59.53;17.83;;;;;;;;;;5107151;28;20088;-66
2022/12/23 08:58:35;;;;;;;58.67;17.50;;;;;;;;;;5107604;28;20375;-66
2022/12/23 09:01:03;;;;;;;59.22;17.88;;;;;;;;;;5105558;28;20039;-66
2022/12/23 09:03:29;;;;;;;73.40;18.48;;;;;;;;;;5088820;28;20164;-67
2022/12/23 09:05:55;;;;;;;58.83;18.35;;;;;;;;;;5107988;28;20035;-67
2022/12/23 09:08:22;;;;;;;58.65;18.48;;;;;;;;;;5107755;28;20089;-67
2022/12/23 09:10:48;;;;;;;66.90;19.38;;;;;;;;;;5089506;28;20047;-66
2022/12/23 09:13:14;;;;;;;52.88;17.38;;;;;;;;;;5089129;28;20161;-66
2022/12/23 09:15:41;;;;;;;51.55;17.45;;;;;;;;;;5089476;28;20536;-67
2022/12/23 09:18:08;;;;;;;52.72;17.48;;;;;;;;;;5106371;28;20491;-66
2022/12/23 09:20:34;;;;;;;61.55;18.55;;;;;;;;;;5108342;28;20274;-67
2022/12/23 09:23:01;;;;;;;56.83;18.80;;;;;;;;;;5104782;28;20582;-67
2022/12/23 09:25:27;;;;;;;56.30;18.00;;;;;;;;;;5107286;28;20082;-67
2022/12/23 09:27:53;;;;;;;58.00;18.42;;;;;;;;;;5107982;28;20036;-66
2022/12/23 09:30:19;;;;;;;52.28;18.90;;;;;;;;;;5089723;28;20039;-67
2022/12/23 09:32:45;;;;;;;58.22;18.38;;;;;;;;;;5089619;28;20112;-66
2022/12/23 09:35:12;;;;;;;67.32;19.40;;;;;;;;;;5110543;28;20040;-66
2022/12/23 09:37:38;;;;;;;51.03;17.13;;;;;;;;;;5110766;28;20043;-67
2022/12/23 09:40:05;;;;;;;62.00;18.85;;;;;;;;;;5112141;28;20071;-67
2022/12/23 09:42:38;;;;;;;57.55;17.42;;;;;;;;;;5089655;28;20077;-67
2022/12/23 09:45:07;;;;;;;56.55;19.38;;;;;;;;;;5090163;28;20048;-66
2022/12/23 09:47:34;;;;;;;51.72;18.45;;;;;;;;;;5089917;28;20043;-67
2022/12/23 09:50:01;;;;;;;47.13;16.23;;;;;;;;;;5087628;28;20040;-66
2022/12/23 09:52:37;;;;;;;46.75;15.82;;;;;;;;;;5090749;28;20471;-66
2022/12/23 09:55:03;;;;;;;52.05;16.88;;;;;;;;;;5091988;28;20133;-67
2022/12/23 09:57:35;;;;;;;44.83;15.88;;;;;;;;;;5090752;28;20045;-66
2022/12/23 10:00:07;;;;;;;46.30;16.23;;;;;;;;;;5089794;28;20139;-67
2022/12/23 10:02:40;;;;;;;41.53;16.52;;;;;;;;;;5089650;28;20043;-67
2022/12/23 10:05:16;;;;;;;43.90;15.50;;;;;;;;;;5090740;28;20086;-67
2022/12/23 10:07:46;;;;;;;41.17;15.40;;;;;;;;;;5090098;28;20046;-66
2022/12/23 10:10:16;;;;;;;39.28;13.05;;;;;;;;;;5091074;28;20079;-66
2022/12/23 10:12:44;;;;;;;32.78;12.75;;;;;;;;;;5089643;28;20040;-67
2022/12/23 10:15:18;;;;;;;37.35;13.90;;;;;;;;;;5091196;28;20055;-67
2022/12/23 10:17:46;;;;;;;35.67;15.57;;;;;;;;;;5085658;28;20048;-67
2022/12/23 10:20:17;;;;;;;38.78;13.95;;;;;;;;;;5089082;28;20121;-67
2022/12/23 10:22:44;;;;;;;34.10;13.10;;;;;;;;;;5089861;28;20055;-67
2022/12/23 10:25:13;;;;;;;32.63;12.95;;;;;;;;;;5089971;28;20036;-67
2022/12/23 10:27:41;;;;;;;36.05;13.32;;;;;;;;;;5071343;28;20052;-67
2022/12/23 10:30:15;;;;;;;33.97;11.88;;;;;;;;;;5090461;28;20082;-67
2022/12/23 10:32:41;;;;;;;;;;;;;;;;;;5088976;28;20067;-66
2022/12/23 10:35:10;;;;;;;26.92;10.60;;;;;;;;;;5089425;28;19920;-67
2022/12/23 10:37:41;;;;;;;28.60;10.65;;;;;;;;;;5090019;28;20399;-67
2022/12/23 10:40:14;;;;;;;25.15;10.40;;;;;;;;;;5088422;28;20426;-67
2022/12/23 10:42:46;;;;;;;32.10;10.80;;;;;;;;;;5100718;28;20039;-66
2022/12/23 10:45:22;;;;;;;34.42;10.95;;;;;;;;;;5109316;28;20040;-67
2022/12/23 10:47:55;;;;;;;35.10;11.48;;;;;;;;;;5109497;28;20071;-67
2022/12/23 10:50:24;;;;;;;24.10;9.77;;;;;;;;;;5091599;28;20040;-67
2022/12/23 10:52:52;;;;;;;28.98;10.18;;;;;;;;;;5091251;28;20122;-67
2022/12/23 10:55:22;;;;;;;22.95;9.00;;;;;;;;;;5091463;28;20444;-66
2022/12/23 10:57:49;;;;;;;23.63;9.15;;;;;;;;;;5110851;28;20514;-66
2022/12/23 11:00:17;;;;;;;29.70;10.43;;;;;;;;;;5091078;28;20086;-66
2022/12/23 11:02:48;;;;;;;25.75;10.30;;;;;;;;;;5091114;28;20085;-66
2022/12/23 11:05:15;;;;;;;24.45;9.52;;;;;;;;;;5091093;28;20048;-66
2022/12/23 11:07:41;;;;;;;25.10;9.60;;;;;;;;;;5109897;28;20383;-66
2022/12/23 11:10:12;;;;;;;29.38;9.93;;;;;;;;;;5091341;28;20483;-66
2022/12/23 11:12:41;;;;;;;23.45;9.18;;;;;;;;;;5092140;28;20044;-67
2022/12/23 11:15:28;;;;;;;30.27;10.15;;;;;;;;;;5109690;28;20044;-67
2022/12/23 11:17:59;;;;;;;23.13;9.27;;;;;;;;;;5109467;28;20050;-67
2022/12/23 11:20:25;;;;;;;21.88;8.80;;;;;;;;;;5107267;28;20096;-67
2022/12/23 11:22:53;;;;;;;20.95;7.95;;;;;;;;;;5109365;28;20303;-66
2022/12/23 11:25:31;;;;;;;21.95;8.40;;;;;;;;;;5105980;28;20044;-65
2022/12/23 11:28:02;;;;;;;19.35;8.02;;;;;;;;;;5106421;28;20039;-65
2022/12/23 11:30:30;;;;;;;20.98;8.10;;;;;;;;;;5086631;28;20374;-65
2022/12/23 11:32:57;;;;;;;24.52;7.97;;;;;;;;;;5088563;28;20039;-65
2022/12/23 11:35:25;;;;;;;25.13;8.50;;;;;;;;;;5089711;28;20043;-65
2022/12/23 11:37:51;;;;;;;21.42;8.57;;;;;;;;;;5103041;28;20398;-65
2022/12/23 11:40:23;;;;;;;19.17;8.55;;;;;;;;;;5106242;28;20038;-65
2022/12/23 11:42:52;;;;;;;25.55;9.88;;;;;;;;;;5103049;28;20040;-66
2022/12/23 11:45:25;;;;;;;23.88;10.10;;;;;;;;;;5066429;28;20349;-66
2022/12/23 11:47:51;;;;;;;24.17;9.98;;;;;;;;;;5082956;28;20052;-66
2022/12/23 11:50:27;;;;;;;30.83;11.55;;;;;;;;;;5084833;28;20036;-66
2022/12/23 11:52:56;;;;;;;27.98;11.02;;;;;;;;;;5099107;28;20048;-67
2022/12/23 11:55:24;;;;;;;31.50;10.93;;;;;;;;;;5098033;28;20536;-65
2022/12/23 11:57:50;;;;;;;26.95;10.63;;;;;;;;;;5063668;28;20395;-65
2022/12/23 12:00:19;;;;;;;30.83;11.48;;;;;;;;;;5104546;28;20118;-66
2022/12/23 12:02:46;;;;;;;29.00;12.10;;;;;;;;;;5101138;28;20521;-65
2022/12/23 12:05:21;;;;;;;27.60;11.55;;;;;;;;;;5100165;28;20157;-65
2022/12/23 12:07:48;;;;;;;28.42;11.75;;;;;;;;;;5099899;28;20062;-66
2022/12/23 12:10:20;;;;;;;35.53;12.50;;;;;;;;;;5099029;28;20035;-65
2022/12/23 12:12:48;;;;;;;31.92;12.25;;;;;;;;;;5081217;28;20047;-65
2022/12/23 12:15:24;;;;;;;29.33;11.43;;;;;;;;;;5079866;28;20139;-65
2022/12/23 12:17:52;;;;;;;36.28;13.82;;;;;;;;;;5083389;28;20048;-66
2022/12/23 12:20:26;;;;;;;37.28;13.60;;;;;;;;;;5101026;28;20083;-65
2022/12/23 12:22:57;;;;;;;43.50;15.15;;;;;;;;;;5081298;28;20708;-65
2022/12/23 12:25:26;;;;;;;34.42;14.02;;;;;;;;;;5100753;28;20048;-65
2022/12/23 12:27:57;;;;;;;37.33;13.63;;;;;;;;;;5080481;28;20189;-66
2022/12/23 12:30:30;;;;;;;43.90;15.80;;;;;;;;;;5079939;28;20055;-66
2022/12/23 12:32:59;;;;;;;49.97;15.88;;;;;;;;;;5101346;28;20036;-66
2022/12/23 12:35:31;;;;;;;46.95;16.60;;;;;;;;;;5085984;28;20092;-66
2022/12/23 12:38:02;;;;;;;47.40;17.15;;;;;;;;;;5103621;28;20130;-65
2022/12/23 12:40:38;;;;;;;46.33;18.10;;;;;;;;;;5101999;28;20032;-66
2022/12/23 12:43:11;;;;;;;45.15;17.92;;;;;;;;;;5100232;28;20503;-65
2022/12/23 12:45:39;;;;;;;48.43;16.70;;;;;;;;;;5082973;28;20039;-65
2022/12/23 12:48:06;;;;;;;49.72;16.48;;;;;;;;;;5082268;28;20448;-65
2022/12/23 12:50:33;;;;;;;39.88;15.70;;;;;;;;;;5102969;28;20066;-65
2022/12/23 12:53:05;;;;;;;46.70;16.02;;;;;;;;;;5087611;28;20055;-65
2022/12/23 12:55:33;;;;;;;48.03;16.42;;;;;;;;;;5078655;28;20084;-66
2022/12/23 12:58:01;;;;;;;52.13;18.95;;;;;;;;;;5087546;28;20115;-66
2022/12/23 13:00:28;;;;;;;53.40;18.30;;;;;;;;;;5100973;28;20051;-66
2022/12/23 13:03:11;;;;;;;58.08;19.27;;;;;;;;;;5098223;28;20056;-66
2022/12/23 13:05:43;;;;;;;60.92;18.48;;;;;;;;;;5100070;28;20399;-66
2022/12/23 13:08:18;;;;;;;57.90;17.98;;;;;;;;;;5100273;28;20105;-66
2022/12/23 13:10:59;;;;;;;52.13;18.30;;;;;;;;;;5106597;28;20078;-66
2022/12/23 13:13:33;;;;;;;49.03;17.05;;;;;;;;;;5081964;28;20047;-66
2022/12/23 13:16:04;;;;;;;62.38;19.08;;;;;;;;;;5106724;28;20039;-66
2022/12/23 13:18:46;;;;;;;51.50;16.85;;;;;;;;;;5102086;28;20047;-66
2022/12/23 13:21:21;;;;;;;46.83;17.30;;;;;;;;;;5086383;28;20052;-66
2022/12/23 13:23:51;;;;;;;51.25;18.00;;;;;;;;;;5099918;28;20032;-66
2022/12/23 13:26:21;;;;;;;54.22;18.45;;;;;;;;;;5081564;28;20122;-66
2022/12/23 13:29:01;;;;;;;50.85;18.20;;;;;;;;;;5089336;28;20047;-66
2022/12/23 13:31:44;;;;;;;50.65;18.45;;;;;;;;;;5083330;28;20164;-66
2022/12/23 13:34:22;;;;;;;51.28;16.50;;;;;;;;;;5105103;28;20051;-66
2022/12/23 13:36:56;;;;;;;50.17;16.75;;;;;;;;;;5107632;28;20039;-66
2022/12/23 13:39:32;;;;;;;45.35;16.67;;;;;;;;;;5105417;28;20039;-66
2022/12/23 13:42:00;;;;;;;51.05;16.92;;;;;;;;;;5106953;28;20495;-66
2022/12/23 13:44:27;;;;;;;55.75;17.58;;;;;;;;;;5105985;28;20043;-66
2022/12/23 13:46:59;;;;;;;41.88;15.65;;;;;;;;;;5106086;28;20039;-66
2022/12/23 13:49:26;;;;;;;38.22;14.10;;;;;;;;;;5081501;28;20078;-66
2022/12/23 13:52:11;;;;;;;39.22;14.80;;;;;;;;;;5083746;28;20150;-66
2022/12/23 13:54:46;;;;;;;37.53;14.13;;;;;;;;;;5084125;28;20090;-66
2022/12/23 13:57:17;;;;;;;37.63;13.93;;;;;;;;;;5083584;28;20040;-66
2022/12/23 13:59:58;;;;;;;40.40;13.38;;;;;;;;;;5101807;28;20032;-66
2022/12/23 14:02:35;;;;;;;38.30;12.07;;;;;;;;;;5083675;28;20093;-66
2022/12/23 14:05:01;;;;;;;29.80;10.88;;;;;;;;;;5102930;28;20047;-66
2022/12/23 14:07:30;;;;;;;25.73;10.38;;;;;;;;;;5110380;27;20048;-66
2022/12/23 14:09:57;;;;;;;32.92;10.10;;;;;;;;;;5100276;28;20043;-66
2022/12/23 14:12:28;;;;;;;25.17;9.88;;;;;;;;;;5102700;28;20087;-66
2022/12/23 14:15:12;;;;;;;30.83;9.52;;;;;;;;;;5086596;28;20048;-66
2022/12/23 14:17:47;;;;;;;28.33;9.52;;;;;;;;;;5062739;28;20444;-66
2022/12/23 14:20:28;;;;;;;27.45;11.40;;;;;;;;;;5089235;28;20047;-66
2022/12/23 14:23:00;;;;;;;25.48;10.05;;;;;;;;;;5104674;28;20047;-66
2022/12/23 14:25:38;;;;;;;29.73;9.90;;;;;;;;;;5082288;28;20044;-66
2022/12/23 14:28:04;;;;;;;32.03;10.75;;;;;;;;;;5085945;28;20309;-66
2022/12/23 14:30:35;;;;;;;31.77;10.75;;;;;;;;;;5085574;28;20043;-66
2022/12/23 14:33:05;;;;;;;34.15;10.48;;;;;;;;;;5086182;28;20058;-66
2022/12/23 14:35:31;;;;;;;37.30;12.55;;;;;;;;;;5104194;28;20055;-66
2022/12/23 14:38:08;;;;;;;31.20;11.45;;;;;;;;;;5105544;28;20398;-66
2022/12/23 14:40:41;;;;;;;32.92;11.23;;;;;;;;;;5104528;28;20039;-66
2022/12/23 14:43:18;;;;;;;29.03;11.03;;;;;;;;;;5105043;28;20183;-66
2022/12/23 14:45:44;;;;;;;37.35;12.23;;;;;;;;;;5102965;28;20308;-66
2022/12/23 14:48:29;;;;;;;36.58;12.20;;;;;;;;;;5101037;28;20191;-66
2022/12/23 14:50:56;;;;;;;31.52;11.75;;;;;;;;;;5100058;28;20743;-66
2022/12/23 14:53:25;;;;;;;37.35;13.65;;;;;;;;;;5101523;28;20116;-66
2022/12/23 14:56:09;;;;;;;35.50;14.02;;;;;;;;;;5103314;27;20063;-66